Time;durP1;ratioP1;P1;durP2;ratioP2;P2;SDS_P1;SDS_P2;PMS_P1;PMS_P2;Temp;Humidity;BMP_temperature;BMP_pressure;BME280_temperature;BME280_humidity;BME280_pressure;Samples;Min_cycle;Max_cycle;Signal;HPM_P1;HPM_P2
2022/02/10 00:20:51;;;;;;;7.63;4.30;;;4.60;99.90;;;;;;4957492;28;20054;-76
2022/02/10 00:36:39;;;;;;;9.30;4.03;;;4.80;99.90;;;;;;4972744;28;20491;-76
2022/02/10 00:39:35;;;;;;;9.63;4.60;;;4.90;99.90;;;;;;4959369;28;20384;-79
2022/02/10 00:41:54;;;;;;;8.17;4.10;;;4.90;99.90;;;;;;4967115;28;20106;-77
2022/02/10 00:44:19;;;;;;;7.00;3.93;;;4.90;99.90;;;;;;4970011;28;20058;-77
2022/02/10 00:46:45;;;;;;;8.07;3.90;;;4.90;99.90;;;;;;4959576;28;20480;-76
2022/02/10 00:49:11;;;;;;;10.17;4.60;;;4.90;99.90;;;;;;4971514;28;20019;-77
2022/02/10 00:51:36;;;;;;;8.10;4.13;;;4.90;99.90;;;;;;4963492;28;20427;-76
2022/02/10 00:54:02;;;;;;;7.87;3.80;;;4.90;99.90;;;;;;4965052;28;20050;-77
2022/02/10 00:56:28;;;;;;;9.87;4.20;;;5.00;99.90;;;;;;4969803;28;20427;-76
2022/02/10 00:59:09;;;;;;;7.50;3.97;;;5.00;99.90;;;;;;4959415;28;20416;-77
2022/02/10 01:31:59;;;;;;;8.33;4.13;;;5.10;99.90;;;;;;4967170;28;20022;-76
2022/02/10 01:34:26;;;;;;;6.70;3.60;;;5.10;99.90;;;;;;4960567;28;20027;-76
2022/02/10 01:36:52;;;;;;;6.93;3.97;;;5.10;99.90;;;;;;4971208;28;20037;-76
2022/02/10 01:39:23;;;;;;;6.10;3.27;;;5.10;99.90;;;;;;4959621;28;20101;-76
2022/02/10 02:03:36;;;;;;;7.57;3.30;;;5.10;99.90;;;;;;4963557;28;20195;-75
2022/02/10 02:06:08;;;;;;;9.53;3.83;;;5.00;99.90;;;;;;4963559;28;20090;-75
2022/02/10 02:08:37;;;;;;;8.65;4.10;;;5.10;99.90;;;;;;4969834;28;20053;-76
2022/02/10 02:11:04;;;;;;;16.37;4.87;;;5.20;99.90;;;;;;4958082;28;20380;-75
2022/02/10 02:13:33;;;;;;;9.80;4.37;;;5.20;99.90;;;;;;4967110;28;20038;-75
2022/02/10 02:15:59;;;;;;;10.87;4.17;;;5.20;99.90;;;;;;4964564;28;20036;-75
2022/02/10 02:18:26;;;;;;;9.47;4.40;;;5.30;99.90;;;;;;4959847;28;20023;-75
2022/02/10 02:20:56;;;;;;;7.73;4.30;;;5.20;99.90;;;;;;4970410;28;20022;-75
2022/02/10 02:23:24;;;;;;;10.83;4.57;;;5.10;99.90;;;;;;4953940;29;20070;-76
2022/02/10 02:25:56;;;;;;;8.40;4.50;;;5.10;99.90;;;;;;4954292;29;20089;-76
2022/02/10 02:28:23;;;;;;;10.57;5.00;;;5.10;99.90;;;;;;4955394;29;20027;-76
2022/02/10 02:31:04;;;;;;;9.63;4.93;;;5.10;99.90;;;;;;4956681;28;20023;-76
2022/02/10 03:06:22;;;;;;;11.17;5.50;;;4.90;99.90;;;;;;4955644;29;20082;-75
2022/02/10 03:08:52;;;;;;;12.97;5.43;;;4.90;99.90;;;;;;4954428;29;20019;-75
2022/02/10 03:11:18;;;;;;;10.93;5.13;;;5.00;99.90;;;;;;4953552;29;20074;-75
2022/02/10 03:13:52;;;;;;;9.03;5.47;;;5.00;99.90;;;;;;4955246;28;20453;-75
2022/02/10 03:17:08;;;;;;;11.40;5.37;;;5.00;99.90;;;;;;4955060;28;20484;-75
2022/02/10 04:07:59;;;;;;;7.30;4.37;;;4.60;99.90;;;;;;4958907;29;20082;-75
2022/02/10 04:10:44;;;;;;;16.57;5.27;;;4.60;99.90;;;;;;4957022;29;20026;-75
2022/02/10 04:16:08;;;;;;;9.40;4.63;;;4.30;99.90;;;;;;4959008;29;20029;-75
2022/02/10 04:24:01;;;;;;;7.57;4.00;;;4.20;99.90;;;;;;4958093;28;20051;-76
2022/02/10 05:23:30;;;;;;;9.03;3.43;;;3.90;99.90;;;;;;4957236;28;20556;-76
2022/02/10 05:34:09;;;;;;;6.00;3.33;;;3.80;99.90;;;;;;4956871;29;20071;-77
2022/02/10 05:36:37;;;;;;;9.33;3.43;;;3.70;99.90;;;;;;4955607;28;20034;-77
2022/02/10 05:44:36;;;;;;;7.73;3.77;;;3.60;99.90;;;;;;4957034;28;20473;-76
2022/02/10 05:55:24;;;;;;;6.53;3.20;;;3.50;99.90;;;;;;4956920;28;20031;-76
2022/02/10 05:57:58;;;;;;;10.30;3.33;;;3.50;99.90;;;;;;4955791;28;20354;-76
2022/02/10 06:51:51;;;;;;;7.07;2.80;;;3.00;99.90;;;;;;4955166;29;20356;-75
2022/02/10 07:56:53;;;;;;;9.17;4.77;;;3.90;99.90;;;;;;4954055;28;20031;-75
2022/02/10 09:03:44;;;;;;;5.28;2.28;;;7.90;99.90;;;;;;4965289;28;20082;-78
2022/02/10 09:06:27;;;;;;;8.73;2.92;;;7.90;99.90;;;;;;4958477;28;20452;-75
2022/02/10 10:03:03;;;;;;;7.47;3.78;;;9.20;99.90;;;;;;4961146;28;20023;-76
2022/02/10 10:05:34;;;;;;;8.55;3.60;;;9.20;99.90;;;;;;4959073;28;20388;-75
2022/02/10 10:08:23;;;;;;;6.97;3.58;;;9.20;99.90;;;;;;4963553;28;20110;-76
2022/02/10 10:24:21;;;;;;;12.90;4.05;;;9.40;99.90;;;;;;4974232;28;20051;-77
2022/02/10 10:49:37;;;;;;;8.90;4.55;;;9.10;99.90;;;;;;4971298;28;20038;-76
2022/02/10 10:51:55;;;;;;;10.63;4.80;;;9.20;99.90;;;;;;4967927;28;20038;-76
2022/02/10 10:57:06;;;;;;;9.93;4.55;;;9.20;99.90;;;;;;4958847;28;20480;-75
2022/02/10 10:59:55;;;;;;;9.10;4.22;;;9.10;99.90;;;;;;4973276;28;20031;-75
2022/02/10 11:06:46;;;;;;;11.63;4.78;;;9.10;99.90;;;;;;4970220;28;20041;-75
2022/02/10 11:39:37;;;;;;;9.10;3.80;;;8.90;99.90;;;;;;4957358;28;20472;-75
2022/02/10 11:42:42;;;;;;;7.32;3.92;;;8.90;99.90;;;;;;4961299;28;20031;-77
2022/02/10 11:46:40;;;;;;;4.97;2.80;;;8.90;99.90;;;;;;4955010;28;20489;-75
2022/02/10 12:00:19;;;;;;;5.20;2.80;;;9.10;99.90;;;;;;4969977;28;20038;-75
2022/02/10 14:12:54;;;;;;;27.65;13.18;;;8.80;99.90;;;;;;4964683;28;20023;-75
2022/02/10 14:15:52;;;;;;;8.15;3.92;;;8.80;99.90;;;;;;4966729;28;20076;-74
2022/02/10 14:21:09;;;;;;;6.97;3.53;;;8.80;99.90;;;;;;4971424;28;20069;-74
2022/02/10 14:26:18;;;;;;;7.97;3.28;;;8.70;99.60;;;;;;4973442;28;20042;-73
2022/02/10 14:28:44;;;;;;;6.32;3.15;;;8.70;99.80;;;;;;4956610;28;20031;-73
2022/02/10 14:31:10;;;;;;;8.77;3.38;;;8.70;99.30;;;;;;4967828;28;20028;-73
2022/02/10 14:33:38;;;;;;;5.32;2.78;;;8.70;99.00;;;;;;4963059;28;20081;-73
2022/02/10 14:38:59;;;;;;;6.22;2.63;;;8.70;99.00;;;;;;4970392;28;20031;-74
2022/02/10 14:41:54;;;;;;;6.78;3.00;;;8.70;98.70;;;;;;4961178;28;20119;-73
2022/02/10 16:18:46;;;;;;;30.25;16.30;;;7.90;99.90;;;;;;4969479;28;20049;-74
2022/02/10 16:21:14;;;;;;;24.70;12.10;;;8.00;99.90;;;;;;4959128;28;20019;-73
2022/02/10 16:23:41;;;;;;;8.60;4.47;;;8.00;99.90;;;;;;4961888;28;20563;-74
2022/02/10 16:26:16;;;;;;;8.00;3.95;;;8.00;99.90;;;;;;4961730;28;20401;-73
2022/02/10 16:28:44;;;;;;;9.77;3.90;;;8.00;99.90;;;;;;4969409;28;20532;-74
2022/02/10 16:31:12;;;;;;;9.55;4.60;;;7.90;99.90;;;;;;4957692;28;20094;-74
2022/02/10 16:33:42;;;;;;;7.75;4.13;;;7.90;99.90;;;;;;4962005;28;20031;-74
2022/02/10 16:36:11;;;;;;;9.35;3.72;;;8.00;99.90;;;;;;4967020;28;20129;-74
2022/02/10 16:38:37;;;;;;;6.40;3.08;;;7.90;99.90;;;;;;4955898;28;20074;-76
2022/02/10 16:41:03;;;;;;;6.82;3.53;;;8.00;99.90;;;;;;4969917;28;20055;-73
2022/02/10 16:43:29;;;;;;;5.95;3.22;;;7.90;99.90;;;;;;4963711;28;20027;-73
2022/02/10 16:45:56;;;;;;;6.60;3.70;;;7.90;99.90;;;;;;4963989;28;20366;-73
2022/02/10 16:48:22;;;;;;;6.95;3.33;;;7.90;99.90;;;;;;4956112;28;20481;-73
2022/02/10 16:50:48;;;;;;;8.93;3.30;;;8.00;99.90;;;;;;4956496;28;20038;-73
2022/02/10 16:53:18;;;;;;;7.40;3.55;;;8.00;99.90;;;;;;4965518;28;20035;-73
2022/02/10 16:56:11;;;;;;;8.20;3.78;;;7.90;99.90;;;;;;4961639;28;20122;-74
2022/02/10 16:58:41;;;;;;;4.68;3.00;;;8.00;99.90;;;;;;4956410;28;20091;-75
2022/02/10 17:17:21;;;;;;;5.13;3.30;;;7.90;99.90;;;;;;4964671;28;20042;-74
2022/02/10 17:19:58;;;;;;;6.40;3.28;;;7.90;99.90;;;;;;4961917;28;20027;-74
2022/02/10 17:27:44;;;;;;;11.88;3.97;;;8.00;99.90;;;;;;4963682;28;20039;-74
2022/02/10 17:35:46;;;;;;;5.60;3.50;;;8.00;99.90;;;;;;4967372;28;20035;-74
2022/02/10 17:54:15;;;;;;;6.55;3.45;;;8.00;99.90;;;;;;4970540;28;20135;-74
2022/02/10 17:56:41;;;;;;;7.38;3.25;;;8.00;99.90;;;;;;4956834;28;20532;-77
2022/02/10 17:59:07;;;;;;;6.15;2.88;;;8.00;99.90;;;;;;4968340;28;20464;-74
2022/02/10 18:01:34;;;;;;;5.10;3.00;;;8.00;99.90;;;;;;4964515;28;20023;-74
2022/02/10 18:03:59;;;;;;;6.07;2.97;;;8.00;99.90;;;;;;4966297;28;20487;-76
2022/02/10 18:06:28;;;;;;;5.82;2.97;;;8.00;99.90;;;;;;4971453;28;20027;-74
2022/02/10 18:14:42;;;;;;;4.88;2.88;;;8.10;99.90;;;;;;4970972;28;20034;-76
2022/02/10 18:17:33;;;;;;;4.78;2.85;;;8.10;99.90;;;;;;4961235;28;20030;-75
2022/02/10 18:19:58;;;;;;;5.40;3.00;;;8.10;99.90;;;;;;4962314;28;20027;-74
2022/02/10 18:27:34;;;;;;;6.28;2.92;;;8.10;99.90;;;;;;4967350;28;20097;-75
2022/02/10 18:54:30;;;;;;;9.00;4.82;;;8.20;99.90;;;;;;4958007;28;20038;-72
2022/02/10 19:08:23;;;;;;;;;;;8.20;99.90;;;;;;4968034;28;20053;-73
2022/02/10 19:10:55;;;;;;;9.07;3.28;;;8.20;99.90;;;;;;4956103;28;19920;-74
2022/02/10 19:13:22;;;;;;;7.40;3.58;;;8.10;99.90;;;;;;4970304;28;20057;-74
2022/02/10 19:15:50;;;;;;;6.93;3.28;;;8.10;99.90;;;;;;4958227;28;20097;-74
2022/02/10 19:18:17;;;;;;;7.88;3.58;;;8.10;99.90;;;;;;4962981;28;20121;-74
2022/02/10 19:20:42;;;;;;;9.52;3.85;;;8.10;99.90;;;;;;4961585;28;20035;-74
2022/02/10 19:23:09;;;;;;;7.75;3.42;;;8.10;99.90;;;;;;4961463;28;20019;-72
2022/02/10 19:25:36;;;;;;;7.07;3.70;;;8.00;99.90;;;;;;4958698;28;20484;-72
2022/02/10 19:28:03;;;;;;;6.50;3.30;;;7.90;99.90;;;;;;4954033;28;20125;-73
2022/02/10 19:30:31;;;;;;;6.32;3.80;;;7.90;99.90;;;;;;4968383;28;20380;-72
2022/02/10 19:33:00;;;;;;;10.27;3.97;;;7.80;99.90;;;;;;4967451;28;20035;-71
2022/02/10 19:35:28;;;;;;;7.05;4.00;;;7.80;99.90;;;;;;4959420;28;20125;-74
2022/02/10 19:37:59;;;;;;;7.53;3.72;;;7.90;99.90;;;;;;4970324;28;20081;-72
2022/02/10 19:40:29;;;;;;;8.27;4.13;;;7.80;99.90;;;;;;4956663;28;20059;-72
2022/02/10 19:42:56;;;;;;;7.20;3.78;;;7.70;99.90;;;;;;4953054;28;20035;-72
2022/02/10 19:45:26;;;;;;;8.48;3.85;;;7.70;99.90;;;;;;4964878;28;20050;-72
2022/02/10 19:47:52;;;;;;;8.15;3.88;;;7.60;99.90;;;;;;4962826;28;20035;-72
2022/02/10 19:50:25;;;;;;;9.20;4.43;;;7.50;99.90;;;;;;4957252;28;20098;-72
2022/02/10 19:52:52;;;;;;;7.75;3.92;;;7.50;99.90;;;;;;4967602;28;20134;-72
2022/02/10 19:55:21;;;;;;;11.30;5.00;;;7.60;99.90;;;;;;4960254;28;20041;-72
2022/02/10 19:57:50;;;;;;;13.55;4.80;;;7.50;99.90;;;;;;4959745;28;20035;-72
2022/02/10 20:00:21;;;;;;;8.85;4.82;;;7.50;99.90;;;;;;4966706;28;20029;-74
2022/02/10 20:02:47;;;;;;;9.02;4.40;;;7.40;99.90;;;;;;4955179;28;20067;-74
2022/02/10 20:05:13;;;;;;;30.25;12.20;;;7.40;99.90;;;;;;4967357;28;20078;-74
2022/02/10 20:07:41;;;;;;;19.85;8.02;;;7.50;99.90;;;;;;4962047;28;20030;-79
2022/02/10 20:10:09;;;;;;;9.00;5.13;;;7.60;99.90;;;;;;4958684;28;20030;-74
2022/02/10 20:12:37;;;;;;;11.57;5.07;;;7.60;99.90;;;;;;4968277;28;20027;-74
2022/02/10 20:15:06;;;;;;;7.95;4.65;;;7.60;99.90;;;;;;4957604;28;20113;-73
2022/02/10 20:17:31;;;;;;;8.73;4.28;;;7.60;99.90;;;;;;4963409;28;20152;-75
2022/02/10 20:19:58;;;;;;;9.65;4.32;;;7.60;99.90;;;;;;4964507;28;20044;-74
2022/02/10 20:22:24;;;;;;;9.23;4.30;;;7.60;99.90;;;;;;4956459;28;20031;-74
2022/02/10 20:24:51;;;;;;;8.88;4.47;;;7.60;99.90;;;;;;4954197;28;20057;-74
2022/02/10 20:27:16;;;;;;;14.07;4.53;;;7.60;99.90;;;;;;4964058;28;20027;-72
2022/02/10 20:29:42;;;;;;;7.68;4.32;;;7.60;99.90;;;;;;4961075;28;20469;-74
2022/02/10 20:32:08;;;;;;;13.73;6.65;;;7.60;99.90;;;;;;4952011;28;20030;-74
2022/02/10 20:34:33;;;;;;;8.70;4.45;;;7.60;99.90;;;;;;4954121;28;20436;-75
2022/02/10 20:37:03;;;;;;;10.35;5.03;;;7.70;99.90;;;;;;4966884;28;20027;-74
2022/02/10 20:39:29;;;;;;;9.93;4.53;;;7.70;99.90;;;;;;4960147;28;20019;-74
2022/02/10 20:42:03;;;;;;;8.70;4.10;;;7.60;99.90;;;;;;4959269;28;20110;-74
2022/02/10 20:44:29;;;;;;;8.32;4.25;;;7.70;99.90;;;;;;4968004;28;20031;-74
2022/02/10 20:46:55;;;;;;;11.40;5.93;;;7.70;99.90;;;;;;4957278;28;20031;-75
2022/02/10 20:49:26;;;;;;;10.07;5.47;;;7.70;99.90;;;;;;4975337;28;20030;-72
2022/02/10 20:51:53;;;;;;;6.93;4.40;;;7.70;99.90;;;;;;4968227;28;20464;-73
2022/02/10 20:54:20;;;;;;;7.60;3.80;;;7.70;99.90;;;;;;4960187;28;20473;-74
2022/02/10 20:56:46;;;;;;;9.55;4.55;;;7.70;99.90;;;;;;4971640;28;20535;-74
2022/02/10 20:59:47;;;;;;;8.40;4.30;;;7.70;99.90;;;;;;4962442;28;20024;-74
2022/02/10 21:02:12;;;;;;;8.05;3.97;;;7.70;99.90;;;;;;4966401;28;20039;-73
2022/02/10 21:04:48;;;;;;;7.65;3.75;;;7.60;99.90;;;;;;4958962;28;20493;-73
2022/02/10 21:07:25;;;;;;;8.52;4.20;;;7.60;99.90;;;;;;4969873;28;20034;-73
2022/02/10 21:09:59;;;;;;;6.82;3.95;;;7.60;99.90;;;;;;4965478;28;20078;-73
2022/02/10 21:12:31;;;;;;;8.68;3.92;;;7.70;99.90;;;;;;4960313;28;20031;-73
2022/02/10 21:14:57;;;;;;;9.68;3.90;;;7.70;99.90;;;;;;4959085;28;20500;-73
2022/02/10 21:17:27;;;;;;;6.80;4.00;;;7.60;99.90;;;;;;4962589;28;20027;-74
2022/02/10 21:20:01;;;;;;;8.43;4.07;;;7.60;99.90;;;;;;4962737;28;20031;-73
2022/02/10 21:22:27;;;;;;;7.68;4.28;;;7.60;99.90;;;;;;4972381;28;20054;-74
2022/02/10 21:25:00;;;;;;;6.97;3.73;;;7.60;99.90;;;;;;4957765;28;20105;-72
2022/02/10 21:29:59;;;;;;;6.85;4.03;;;7.60;99.90;;;;;;4966295;28;20427;-73
2022/02/10 21:32:27;;;;;;;8.85;3.63;;;7.60;99.90;;;;;;4960063;28;20028;-74
2022/02/10 21:37:46;;;;;;;7.32;3.65;;;7.60;99.90;;;;;;4965455;28;20093;-74
2022/02/10 21:57:06;;;;;;;10.30;4.18;;;7.70;99.90;;;;;;4968626;28;20506;-72
2022/02/10 22:10:24;;;;;;;10.75;4.60;;;7.70;99.90;;;;;;4981262;28;20042;-73
2022/02/10 22:21:05;;;;;;;10.35;4.13;;;7.70;99.90;;;;;;4966886;29;20039;-72
2022/02/10 22:23:34;;;;;;;6.60;4.28;;;7.70;99.90;;;;;;4970701;28;20039;-72
2022/02/10 22:26:06;;;;;;;8.60;4.03;;;7.70;99.90;;;;;;4971340;28;20022;-71
2022/02/10 22:28:46;;;;;;;10.82;4.75;;;7.70;99.90;;;;;;5003503;28;20112;-73
2022/02/10 22:31:37;;;;;;;13.30;6.10;;;7.70;99.90;;;;;;4981432;28;20114;-73
2022/02/10 22:34:13;;;;;;;9.35;4.20;;;7.70;99.90;;;;;;4972216;28;20518;-70
2022/02/10 22:36:42;;;;;;;10.25;4.28;;;7.60;99.90;;;;;;4980997;28;20054;-71
2022/02/10 22:39:09;;;;;;;10.30;4.13;;;7.60;99.90;;;;;;4971395;28;20031;-71
2022/02/10 22:41:34;;;;;;;9.80;4.30;;;7.70;99.90;;;;;;4972449;28;20046;-71
2022/02/10 22:44:03;;;;;;;6.60;3.70;;;7.60;99.90;;;;;;4974288;28;20027;-69
2022/02/10 22:46:29;;;;;;;9.85;4.30;;;7.70;99.90;;;;;;4983392;28;20031;-72
2022/02/10 22:48:55;;;;;;;8.90;3.93;;;7.60;99.90;;;;;;4952362;28;20752;-71
2022/02/10 22:51:23;;;;;;;8.53;4.27;;;7.70;99.90;;;;;;4963774;28;20022;-72
2022/02/10 22:53:49;;;;;;;10.65;4.15;;;7.60;99.90;;;;;;4969944;28;20023;-72
2022/02/10 22:56:18;;;;;;;8.95;4.18;;;7.60;99.90;;;;;;4974563;28;20049;-72
2022/02/10 22:58:44;;;;;;;7.73;4.00;;;7.60;99.90;;;;;;4969303;28;20070;-72
2022/02/10 23:01:12;;;;;;;11.43;4.30;;;7.70;99.90;;;;;;4966611;28;20534;-72
2022/02/10 23:03:38;;;;;;;12.05;4.43;;;7.70;99.90;;;;;;4961330;28;20438;-71
2022/02/10 23:06:06;;;;;;;8.43;3.97;;;7.60;99.90;;;;;;4959085;28;20054;-74
2022/02/10 23:08:33;;;;;;;11.20;4.93;;;7.60;99.90;;;;;;4963577;28;20023;-70
2022/02/10 23:11:00;;;;;;;11.88;4.75;;;7.60;99.90;;;;;;4968749;28;20279;-71
2022/02/10 23:13:29;;;;;;;6.07;3.80;;;7.60;99.90;;;;;;4981913;28;20023;-72
2022/02/10 23:16:06;;;;;;;11.10;4.00;;;7.60;99.90;;;;;;4959136;28;20079;-70
2022/02/10 23:18:34;;;;;;;6.83;3.47;;;7.70;99.90;;;;;;4956845;28;20074;-71
2022/02/10 23:21:03;;;;;;;7.50;3.80;;;7.70;99.90;;;;;;4965874;28;20031;-71
2022/02/10 23:23:31;;;;;;;8.43;4.30;;;7.70;99.90;;;;;;4966614;28;20053;-71
2022/02/10 23:25:58;;;;;;;8.82;4.55;;;7.70;99.90;;;;;;4978936;28;20440;-70
2022/02/10 23:28:28;;;;;;;9.82;4.28;;;7.60;99.90;;;;;;4956148;28;20113;-71
2022/02/10 23:30:56;;;;;;;7.63;4.50;;;7.60;99.90;;;;;;4959036;28;20517;-72
2022/02/10 23:33:29;;;;;;;8.07;4.15;;;7.60;99.90;;;;;;4977545;28;20023;-71
2022/02/10 23:38:43;;;;;;;9.00;4.20;;;7.60;99.90;;;;;;4957796;28;20341;-71
2022/02/10 23:43:46;;;;;;;8.20;3.40;;;7.60;99.90;;;;;;4966032;28;20027;-72
2022/02/10 23:46:11;;;;;;;9.73;3.78;;;7.60;99.90;;;;;;4956670;28;20118;-71
2022/02/10 23:48:38;;;;;;;6.38;3.10;;;7.60;99.90;;;;;;4968795;28;20111;-71
2022/02/10 23:51:04;;;;;;;8.45;3.60;;;7.50;99.90;;;;;;4959189;28;20054;-71
2022/02/10 23:53:30;;;;;;;8.30;3.50;;;7.60;99.90;;;;;;4961730;28;20388;-70
2022/02/10 23:56:01;;;;;;;6.22;3.42;;;7.60;99.90;;;;;;4965625;28;20069;-71
